createdAt,value
2018-08-12T00:01:16.545Z,20.80
2018-08-12T00:03:44.915Z,20.76
2018-08-12T00:06:13.399Z,20.75
2018-08-12T00:08:44.899Z,20.71
2018-08-12T00:11:13.942Z,20.71
2018-08-12T00:13:42.471Z,20.70
2018-08-12T00:16:12.263Z,20.67
2018-08-12T00:18:41.181Z,20.63
2018-08-12T00:21:09.718Z,20.64
2018-08-12T00:23:38.562Z,20.61
2018-08-12T00:26:07.553Z,20.57
2018-08-12T00:28:36.263Z,20.57
2018-08-12T00:31:05.854Z,20.52
2018-08-12T00:33:34.392Z,20.50
2018-08-12T00:36:03.122Z,20.41
2018-08-12T00:38:31.756Z,20.27
2018-08-12T00:41:00.429Z,20.15
2018-08-12T00:43:28.975Z,20.04
2018-08-12T00:45:58.275Z,20.05
2018-08-12T00:48:31.971Z,20.10
2018-08-12T00:51:00.776Z,20.11
2018-08-12T00:53:29.414Z,20.07
2018-08-12T00:55:58.984Z,19.88
2018-08-12T00:58:32.602Z,19.64
2018-08-12T01:01:01.598Z,19.70
2018-08-12T01:03:30.410Z,19.85
2018-08-12T01:06:00.007Z,19.91
2018-08-12T01:08:37.941Z,19.69
2018-08-12T01:11:06.686Z,19.44
2018-08-12T01:13:35.390Z,19.49
2018-08-12T01:16:06.069Z,19.56
2018-08-12T01:18:34.868Z,19.54
2018-08-12T01:21:04.015Z,19.48
2018-08-12T01:23:32.757Z,19.37
2018-08-12T01:26:02.429Z,19.35
2018-08-12T01:28:32.117Z,19.46
2018-08-12T01:31:07.994Z,19.60
2018-08-12T01:33:37.511Z,19.61
2018-08-12T01:36:06.365Z,19.51
2018-08-12T01:38:35.458Z,19.55
2018-08-12T01:41:04.654Z,19.61
2018-08-12T01:43:33.416Z,19.57
2018-08-12T01:46:02.976Z,19.56
2018-08-12T01:48:31.715Z,19.56
2018-08-12T01:51:00.679Z,19.48
2018-08-12T01:53:30.261Z,19.47
2018-08-12T01:55:59.156Z,19.49
2018-08-12T01:58:33.224Z,19.52
2018-08-12T02:01:01.925Z,19.59
2018-08-12T02:03:30.555Z,19.63
2018-08-12T02:05:59.276Z,19.61
2018-08-12T02:08:28.631Z,19.62
2018-08-12T02:10:57.421Z,19.56
2018-08-12T02:13:26.549Z,19.56
2018-08-12T02:15:55.255Z,19.59
2018-08-12T02:18:24.066Z,19.62
2018-08-12T02:20:52.807Z,19.61
2018-08-12T02:23:21.639Z,19.58
2018-08-12T02:25:51.122Z,19.55
2018-08-12T02:28:24.889Z,19.55
2018-08-12T02:30:53.551Z,19.56
2018-08-12T02:33:22.213Z,19.53
2018-08-12T02:35:50.966Z,19.49
2018-08-12T02:38:38.305Z,19.38
2018-08-12T02:41:08.003Z,19.39
2018-08-12T02:43:36.640Z,19.32
2018-08-12T02:46:06.234Z,19.35
2018-08-12T02:48:36.524Z,19.33
2018-08-12T02:51:05.245Z,19.33
2018-08-12T02:53:34.719Z,19.28
2018-08-12T02:56:03.537Z,19.27
2018-08-12T02:58:32.092Z,19.28
2018-08-12T03:01:01.597Z,19.23
2018-08-12T03:03:30.268Z,19.28
2018-08-12T03:05:58.875Z,19.26
2018-08-12T03:08:28.116Z,19.00
2018-08-12T03:10:57.443Z,18.75
2018-08-12T03:13:26.422Z,18.63
2018-08-12T03:15:55.159Z,18.55
2018-08-12T03:21:22.361Z,18.57
2018-08-12T03:23:51.921Z,18.54
2018-08-12T03:26:20.999Z,18.47
2018-08-12T03:31:52.023Z,18.33
2018-08-12T03:34:21.016Z,18.23
2018-08-12T03:36:49.697Z,18.07
2018-08-12T03:42:20.715Z,17.83
2018-08-12T03:44:49.343Z,17.74
2018-08-12T03:47:18.479Z,17.61
2018-08-12T03:52:48.919Z,17.35
2018-08-12T03:55:18.014Z,17.24
2018-08-12T03:57:46.726Z,17.19
2018-08-12T04:00:18.129Z,17.16
2018-08-12T04:02:48.143Z,17.13
2018-08-12T04:05:19.452Z,17.12
2018-08-12T04:07:48.231Z,17.10
2018-08-12T04:10:17.043Z,17.05
2018-08-12T04:12:45.749Z,17.06
2018-08-12T04:15:15.031Z,17.07
2018-08-12T04:17:43.722Z,17.09
2018-08-12T04:20:13.085Z,17.08
2018-08-12T04:22:42.543Z,17.04
2018-08-12T04:25:11.304Z,17.02
2018-08-12T04:27:40.025Z,17.05
2018-08-12T04:30:09.777Z,17.04
2018-08-12T04:32:38.395Z,17.06
2018-08-12T04:35:07.997Z,16.99
2018-08-12T04:37:36.754Z,16.90
2018-08-12T04:40:08.089Z,16.89
2018-08-12T04:42:37.417Z,16.93
2018-08-12T04:45:06.409Z,16.92
2018-08-12T04:47:36.070Z,16.93
2018-08-12T04:50:05.523Z,16.95
2018-08-12T04:52:34.374Z,17.00
2018-08-12T04:55:04.998Z,16.99
2018-08-12T04:57:34.310Z,17.01
2018-08-12T05:00:12.302Z,17.03
2018-08-12T05:02:41.924Z,17.09
2018-08-12T05:05:11.492Z,17.14
2018-08-12T05:07:40.345Z,17.13
2018-08-12T05:10:09.232Z,17.15
2018-08-12T05:12:37.914Z,17.21
2018-08-12T05:15:08.927Z,17.21
2018-08-12T05:17:37.634Z,17.20
2018-08-12T05:20:06.805Z,17.18
2018-08-12T05:22:36.734Z,17.20
2018-08-12T05:25:05.730Z,17.33
2018-08-12T05:27:34.546Z,17.35
2018-08-12T05:30:03.254Z,17.42
2018-08-12T05:32:31.792Z,17.48
2018-08-12T05:35:00.835Z,17.53
2018-08-12T05:37:29.468Z,17.60
2018-08-12T05:40:08.624Z,17.62
2018-08-12T05:42:37.479Z,17.65
2018-08-12T05:45:07.457Z,17.63
2018-08-12T05:47:35.970Z,17.57
2018-08-12T05:50:18.711Z,17.59
2018-08-12T05:52:47.627Z,17.74
2018-08-12T05:55:16.838Z,17.82
2018-08-12T05:57:47.575Z,17.85
2018-08-12T06:00:18.598Z,17.89
2018-08-12T06:02:49.512Z,17.92
2018-08-12T06:05:18.145Z,17.90
2018-08-12T06:07:47.716Z,17.97
2018-08-12T06:10:16.827Z,18.10
2018-08-12T06:12:46.453Z,18.17
2018-08-12T06:15:17.742Z,18.22
2018-08-12T06:17:46.386Z,18.28
2018-08-12T06:20:15.495Z,18.37
2018-08-12T06:22:43.981Z,18.38
2018-08-12T06:25:17.329Z,18.36
2018-08-12T06:27:45.721Z,18.36
2018-08-12T06:30:14.898Z,18.41
2018-08-12T06:32:43.400Z,18.53
2018-08-12T06:35:13.954Z,18.58
2018-08-12T06:37:45.042Z,18.65
2018-08-12T06:40:14.581Z,18.67
2018-08-12T06:42:44.413Z,18.67
2018-08-12T06:45:14.324Z,18.67
2018-08-12T06:47:43.672Z,18.74
2018-08-12T06:50:12.216Z,18.81
2018-08-12T06:52:41.208Z,18.91
2018-08-12T06:55:11.803Z,18.96
2018-08-12T06:57:41.071Z,18.97
2018-08-12T07:00:12.216Z,18.99
2018-08-12T07:02:40.631Z,19.03
2018-08-12T07:05:10.413Z,19.04
2018-08-12T07:07:39.749Z,19.05
2018-08-12T07:10:14.977Z,19.12
2018-08-12T07:12:43.969Z,19.17
2018-08-12T07:15:16.774Z,19.25
2018-08-12T07:17:46.265Z,19.31
2018-08-12T07:20:15.258Z,19.42
2018-08-12T07:22:44.369Z,19.50
2018-08-12T07:25:14.955Z,19.55
2018-08-12T07:27:45.596Z,19.60
2018-08-12T07:30:18.102Z,19.69
2018-08-12T07:32:46.602Z,19.73
2018-08-12T07:35:15.548Z,19.77
2018-08-12T07:37:44.193Z,19.87
2018-08-12T07:40:19.808Z,19.96
2018-08-12T07:42:49.175Z,20.05
2018-08-12T07:45:17.657Z,20.12
2018-08-12T07:47:46.387Z,20.18
2018-08-12T07:50:14.923Z,20.22
2018-08-12T07:52:44.527Z,20.30
2018-08-12T07:55:13.951Z,20.38
2018-08-12T07:57:43.399Z,20.44
2018-08-12T08:00:15.729Z,20.53
2018-08-12T08:02:44.399Z,20.61
2018-08-12T08:05:13.207Z,20.68
2018-08-12T08:07:42.232Z,20.77
2018-08-12T08:10:12.821Z,20.83
2018-08-12T08:12:41.757Z,20.87
2018-08-12T08:15:13.617Z,20.89
2018-08-12T08:17:42.742Z,20.94
2018-08-12T08:20:12.609Z,20.98
2018-08-12T08:22:41.677Z,21.05
2018-08-12T08:25:10.923Z,21.12
2018-08-12T08:27:39.787Z,21.20
2018-08-12T08:30:27.169Z,21.27
2018-08-12T08:32:56.254Z,21.37
2018-08-12T08:35:24.729Z,21.50
2018-08-12T08:37:53.340Z,21.51
2018-08-12T08:40:22.214Z,21.54
2018-08-12T08:42:51.529Z,21.61
2018-08-12T08:45:21.715Z,21.67
2018-08-12T08:47:51.642Z,21.68
2018-08-12T08:50:21.355Z,21.68
2018-08-12T08:52:50.091Z,21.69
2018-08-12T08:55:18.823Z,21.76
2018-08-12T08:57:48.448Z,21.89
2018-08-12T09:00:19.976Z,21.99
2018-08-12T09:02:51.819Z,22.07
2018-08-12T09:05:20.589Z,22.22
2018-08-12T09:07:49.645Z,22.31
2018-08-12T09:10:19.126Z,22.35
2018-08-12T09:12:47.975Z,22.38
2018-08-12T09:15:18.189Z,22.46
2018-08-12T09:17:47.501Z,22.52
2018-08-12T09:20:19.414Z,22.60
2018-08-12T09:22:48.044Z,22.68
2018-08-12T09:25:16.901Z,22.76
2018-08-12T09:27:45.421Z,22.90
2018-08-12T09:30:20.241Z,23.03
2018-08-12T09:32:49.247Z,23.10
2018-08-12T09:35:17.873Z,23.13
2018-08-12T09:37:46.463Z,23.28
2018-08-12T09:40:17.055Z,23.37
2018-08-12T09:42:46.518Z,23.45
2018-08-12T09:45:17.244Z,23.57
2018-08-12T09:47:46.071Z,23.72
2018-08-12T09:50:16.912Z,23.84
2018-08-12T09:52:46.013Z,24.00
2018-08-12T09:55:15.217Z,24.14
2018-08-12T09:57:43.783Z,24.21
2018-08-12T10:00:26.082Z,24.26
2018-08-12T10:02:55.700Z,24.31
2018-08-12T10:05:24.569Z,24.38
2018-08-12T10:07:54.840Z,24.37
2018-08-12T10:10:23.371Z,24.38
2018-08-12T10:12:52.112Z,24.48
2018-08-12T10:15:20.605Z,24.51
2018-08-12T10:17:53.942Z,24.57
2018-08-12T10:20:22.653Z,24.71
2018-08-12T10:22:51.698Z,24.88
2018-08-12T10:25:20.557Z,24.95
2018-08-12T10:27:49.164Z,25.02
2018-08-12T10:30:17.729Z,25.16
2018-08-12T10:32:46.833Z,25.32
2018-08-12T10:35:16.724Z,25.45
2018-08-12T10:37:46.277Z,25.49
2018-08-12T10:40:17.391Z,25.56
2018-08-12T10:42:47.349Z,25.67
2018-08-12T10:45:16.159Z,25.85
2018-08-12T10:47:44.994Z,26.02
2018-08-12T10:50:16.042Z,26.23
2018-08-12T10:52:45.608Z,26.48
2018-08-12T10:55:15.860Z,26.65
2018-08-12T10:57:44.915Z,26.69
2018-08-12T11:00:20.487Z,26.88
2018-08-12T11:02:49.320Z,27.08
2018-08-12T11:05:18.114Z,27.25
2018-08-12T11:07:49.437Z,27.40
2018-08-12T11:10:18.012Z,27.69
2018-08-12T11:12:46.667Z,27.80
2018-08-12T11:15:15.494Z,27.88
2018-08-12T11:17:44.074Z,28.04
2018-08-12T11:20:13.112Z,28.39
2018-08-12T11:22:41.867Z,28.70
2018-08-12T11:25:11.620Z,29.01
2018-08-12T11:27:40.144Z,29.23
2018-08-12T11:30:27.333Z,29.41
2018-08-12T11:32:55.973Z,29.42
2018-08-12T11:35:25.039Z,29.13
2018-08-12T11:37:53.590Z,29.31
2018-08-12T11:40:22.285Z,29.21
2018-08-12T11:42:51.063Z,29.45
2018-08-12T11:45:19.979Z,29.62
2018-08-12T11:47:49.344Z,29.83
2018-08-12T11:50:18.354Z,29.97
2018-08-12T11:52:47.621Z,29.65
2018-08-12T11:55:19.643Z,30.04
2018-08-12T11:57:48.278Z,30.36
2018-08-12T12:00:17.225Z,30.55
2018-08-12T12:02:46.420Z,30.72
2018-08-12T12:05:15.153Z,30.94
2018-08-12T12:07:43.077Z,30.94
2018-08-12T12:10:13.615Z,31.01
2018-08-12T12:12:42.563Z,31.18
2018-08-12T12:15:11.021Z,31.22
2018-08-12T12:17:38.841Z,31.29
2018-08-12T12:20:07.711Z,31.77
2018-08-12T12:22:36.995Z,31.98
2018-08-12T12:25:05.397Z,32.04
2018-08-12T12:27:33.145Z,31.97
2018-08-12T12:30:00.911Z,31.95
2018-08-12T12:32:28.613Z,31.86
2018-08-12T12:34:56.389Z,32.10
2018-08-12T12:37:24.975Z,32.46
2018-08-12T12:39:52.659Z,32.64
2018-08-12T12:42:20.544Z,32.70
2018-08-12T12:44:48.512Z,32.71
2018-08-12T12:47:16.506Z,32.59
2018-08-12T12:49:44.304Z,32.57
2018-08-12T12:52:11.978Z,32.20
2018-08-12T12:54:39.670Z,32.48
2018-08-12T12:57:07.326Z,32.73
2018-08-12T12:59:35.206Z,32.99
2018-08-12T13:02:02.918Z,33.23
2018-08-12T13:04:30.798Z,33.57
2018-08-12T13:06:58.788Z,33.46
2018-08-12T13:09:26.833Z,33.45
2018-08-12T13:11:54.798Z,33.30
2018-08-12T13:14:22.632Z,33.10
2018-08-12T13:16:50.420Z,32.99
2018-08-12T13:19:18.112Z,32.74
2018-08-12T13:21:45.882Z,32.42
2018-08-12T13:24:13.937Z,32.40
2018-08-12T13:26:41.652Z,32.18
2018-08-12T13:29:09.492Z,32.07
2018-08-12T13:31:37.189Z,31.90
2018-08-12T13:34:04.916Z,31.79
2018-08-12T13:36:33.251Z,31.63
2018-08-12T13:39:01.492Z,31.52
2018-08-12T13:41:30.570Z,31.54
2018-08-12T13:43:58.304Z,31.54
2018-08-12T13:46:25.971Z,31.57
2018-08-12T13:48:53.758Z,31.51
2018-08-12T13:51:21.593Z,31.42
2018-08-12T13:53:49.418Z,31.30
2018-08-12T13:56:17.210Z,31.37
2018-08-12T13:58:50.010Z,31.36
2018-08-12T14:01:17.818Z,31.29
2018-08-12T14:03:45.684Z,31.35
2018-08-12T14:06:13.443Z,31.32
2018-08-12T14:08:41.169Z,31.39
2018-08-12T14:11:09.019Z,31.36
2018-08-12T14:13:36.932Z,31.37
2018-08-12T14:16:05.075Z,31.48
2018-08-12T14:18:33.160Z,31.35
2018-08-12T14:21:00.877Z,31.25
2018-08-12T14:23:28.500Z,31.17
2018-08-12T14:25:56.162Z,31.18
2018-08-12T14:28:24.097Z,31.20
2018-08-12T14:30:51.741Z,31.07
2018-08-12T14:33:19.355Z,31.02
2018-08-12T14:35:47.256Z,31.04
2018-08-12T14:38:14.982Z,30.93
2018-08-12T14:40:42.821Z,30.92
2018-08-12T14:43:10.532Z,30.92
2018-08-12T14:45:38.711Z,30.96
2018-08-12T14:48:11.418Z,30.90
2018-08-12T14:50:39.124Z,30.72
2018-08-12T14:53:06.899Z,30.64
2018-08-12T14:55:34.705Z,30.41
2018-08-12T14:58:12.812Z,30.27
2018-08-12T15:00:41.641Z,30.09
2018-08-12T15:03:10.129Z,29.94
2018-08-12T15:05:38.727Z,29.82
2018-08-12T15:08:12.274Z,29.68
2018-08-12T15:10:41.084Z,29.65
2018-08-12T15:13:09.636Z,29.64
2018-08-12T15:15:38.121Z,29.55
2018-08-12T15:18:06.776Z,29.42
2018-08-12T15:20:35.263Z,29.34
2018-08-12T15:23:04.068Z,29.20
2018-08-12T15:25:32.588Z,29.15
2018-08-12T15:28:01.242Z,29.15
2018-08-12T15:30:29.806Z,29.15
2018-08-12T15:32:58.795Z,29.14
2018-08-12T15:35:27.373Z,29.14
2018-08-12T15:37:56.075Z,29.17
2018-08-12T15:40:24.761Z,29.04
2018-08-12T15:42:53.344Z,28.95
2018-08-12T15:45:22.806Z,28.91
2018-08-12T15:47:51.215Z,28.85
2018-08-12T15:50:19.736Z,28.85
2018-08-12T15:52:48.407Z,28.79
2018-08-12T15:55:17.178Z,28.78
2018-08-12T15:57:46.056Z,28.73
2018-08-12T16:00:18.515Z,28.74
2018-08-12T16:02:47.631Z,28.67
2018-08-12T16:05:16.428Z,28.63
2018-08-12T16:07:46.129Z,28.60
2018-08-12T16:10:17.952Z,28.58
2018-08-12T16:12:47.181Z,28.55
2018-08-12T16:15:15.859Z,28.52
2018-08-12T16:17:45.170Z,28.53
2018-08-12T16:20:13.882Z,28.50
2018-08-12T16:22:42.639Z,28.50
2018-08-12T16:25:14.772Z,28.46
2018-08-12T16:27:43.943Z,28.46
2018-08-12T16:30:14.025Z,28.41
2018-08-12T16:32:42.647Z,28.37
2018-08-12T16:35:12.744Z,28.36
2018-08-12T16:37:41.841Z,28.35
2018-08-12T16:40:12.408Z,28.28
2018-08-12T16:42:41.248Z,28.23
2018-08-12T16:45:11.077Z,28.22
2018-08-12T16:47:40.589Z,28.21
2018-08-12T16:50:14.322Z,28.19
2018-08-12T16:52:43.874Z,28.22
2018-08-12T16:55:14.193Z,28.23
2018-08-12T16:57:43.595Z,28.21
2018-08-12T17:00:22.660Z,28.20
2018-08-12T17:02:51.449Z,28.17
2018-08-12T17:05:21.126Z,28.14
2018-08-12T17:07:49.843Z,28.13
2018-08-12T17:10:19.161Z,28.11
2018-08-12T17:12:47.926Z,28.07
2018-08-12T17:15:18.281Z,28.00
2018-08-12T17:17:47.597Z,27.99
2018-08-12T17:20:20.846Z,27.97
2018-08-12T17:22:49.638Z,27.95
2018-08-12T17:25:18.125Z,27.88
2018-08-12T17:27:47.114Z,27.87
2018-08-12T17:30:21.124Z,27.84
2018-08-12T17:32:50.046Z,27.80
2018-08-12T17:35:19.868Z,27.76
2018-08-12T17:37:49.607Z,27.71
2018-08-12T17:40:19.842Z,27.70
2018-08-12T17:42:48.708Z,27.68
2018-08-12T17:45:17.187Z,27.66
2018-08-12T17:47:45.692Z,27.62
2018-08-12T17:50:19.418Z,27.60
2018-08-12T17:52:48.074Z,27.58
2018-08-12T17:55:16.810Z,27.54
2018-08-12T17:57:45.846Z,27.52
2018-08-12T18:00:15.778Z,27.49
2018-08-12T18:02:44.258Z,27.46
2018-08-12T18:05:12.871Z,27.42
2018-08-12T18:07:42.305Z,27.41
2018-08-12T18:10:16.067Z,27.38
2018-08-12T18:12:45.748Z,27.35
2018-08-12T18:15:14.409Z,27.33
2018-08-12T18:17:43.255Z,27.27
2018-08-12T18:20:12.081Z,27.24
2018-08-12T18:22:40.683Z,27.21
2018-08-12T18:25:10.699Z,27.20
2018-08-12T18:27:39.287Z,27.17
2018-08-12T18:30:15.010Z,27.15
2018-08-12T18:32:43.647Z,27.10
2018-08-12T18:35:12.885Z,27.07
2018-08-12T18:37:41.882Z,27.03
2018-08-12T18:40:11.595Z,27.00
2018-08-12T18:42:40.102Z,26.96
2018-08-12T18:45:08.757Z,26.91
2018-08-12T18:47:37.207Z,26.88
2018-08-12T18:50:07.301Z,26.87
2018-08-12T18:52:36.103Z,26.85
2018-08-12T18:55:05.695Z,26.83
2018-08-12T18:57:34.363Z,26.82
2018-08-12T19:00:02.791Z,26.80
2018-08-12T19:02:31.604Z,26.77
2018-08-12T19:05:00.379Z,26.72
2018-08-12T19:07:29.152Z,26.70
2018-08-12T19:09:57.924Z,26.66
2018-08-12T19:12:26.363Z,26.65
2018-08-12T19:14:54.878Z,26.65
2018-08-12T19:17:23.641Z,26.63
2018-08-12T19:19:52.363Z,26.59
2018-08-12T19:22:20.886Z,26.57
2018-08-12T19:24:49.625Z,26.56
2018-08-12T19:27:18.358Z,26.57
2018-08-12T19:29:47.211Z,26.55
2018-08-12T19:32:15.851Z,26.54
2018-08-12T19:34:44.584Z,26.53
2018-08-12T19:37:13.175Z,26.53
2018-08-12T19:39:41.860Z,26.53
2018-08-12T19:42:10.712Z,26.52
2018-08-12T19:44:39.154Z,26.52
2018-08-12T19:47:08.123Z,26.43
2018-08-12T19:49:36.742Z,26.42
2018-08-12T19:52:05.489Z,26.42
2018-08-12T19:54:34.035Z,26.40
2018-08-12T19:57:02.832Z,26.44
2018-08-12T19:59:31.665Z,26.45
2018-08-12T20:02:02.008Z,26.45
2018-08-12T20:04:30.603Z,26.44
2018-08-12T20:06:59.271Z,26.38
2018-08-12T20:12:21.917Z,26.43
2018-08-12T20:14:50.483Z,26.37
2018-08-12T20:17:18.973Z,26.29
2018-08-12T20:19:47.526Z,26.27
2018-08-12T20:22:16.721Z,26.20
2018-08-12T20:24:45.737Z,26.13
2018-08-12T20:27:14.323Z,26.10
2018-08-12T20:29:43.305Z,26.07
2018-08-12T20:32:11.711Z,26.03
2018-08-12T20:34:40.377Z,26.01
2018-08-12T20:37:08.939Z,25.96
2018-08-12T20:39:37.514Z,25.85
2018-08-12T20:42:05.895Z,25.80
2018-08-12T20:44:34.360Z,25.74
2018-08-12T20:47:03.004Z,25.70
2018-08-12T20:49:31.517Z,25.70
2018-08-12T20:52:00.059Z,25.65
2018-08-12T20:54:28.486Z,25.63
2018-08-12T20:56:56.921Z,25.59
2018-08-12T20:59:25.582Z,25.56
2018-08-12T21:01:54.085Z,25.53
2018-08-12T21:04:22.633Z,25.46
2018-08-12T21:06:51.557Z,25.43
2018-08-12T21:09:20.044Z,25.41
2018-08-12T21:11:48.519Z,25.42
2018-08-12T21:14:16.923Z,25.40
2018-08-12T21:16:45.455Z,25.40
2018-08-12T21:19:14.308Z,25.38
2018-08-12T21:21:43.543Z,25.34
2018-08-12T21:24:11.947Z,25.32
2018-08-12T21:26:40.426Z,25.30
2018-08-12T21:29:09.278Z,25.27
2018-08-12T21:31:37.676Z,25.24
2018-08-12T21:34:06.181Z,25.21
2018-08-12T21:36:34.605Z,25.17
2018-08-12T21:39:03.381Z,25.15
2018-08-12T21:41:31.934Z,25.13
2018-08-12T21:44:00.353Z,25.12
2018-08-12T21:46:28.774Z,25.11
2018-08-12T21:48:58.443Z,25.10
2018-08-12T21:51:27.566Z,25.07
2018-08-12T21:53:56.597Z,25.06
2018-08-12T21:56:26.157Z,25.03
2018-08-12T21:58:54.688Z,24.98
2018-08-12T22:01:23.668Z,24.94
2018-08-12T22:03:52.122Z,24.88
2018-08-12T22:06:20.673Z,24.85
2018-08-12T22:08:49.154Z,24.83
2018-08-12T22:11:17.666Z,24.85
2018-08-12T22:13:46.385Z,24.88
2018-08-12T22:16:14.862Z,24.88
2018-08-12T22:18:43.471Z,24.88
2018-08-12T22:21:11.952Z,24.86
2018-08-12T22:23:40.656Z,24.81
2018-08-12T22:26:09.733Z,24.79
2018-08-12T22:28:38.221Z,24.77
2018-08-12T22:31:06.809Z,24.76
2018-08-12T22:33:35.623Z,24.75
2018-08-12T22:36:04.516Z,24.75
2018-08-12T22:38:32.995Z,24.75
2018-08-12T22:41:01.371Z,24.75
2018-08-12T22:43:29.912Z,24.77
2018-08-12T22:45:58.999Z,24.75
2018-08-12T22:48:36.925Z,24.71
2018-08-12T22:51:05.667Z,24.72
2018-08-12T22:53:34.071Z,24.70
2018-08-12T22:56:02.549Z,24.63
2018-08-12T22:58:31.057Z,24.57
2018-08-12T23:00:59.597Z,24.54
2018-08-12T23:03:28.127Z,24.51
2018-08-12T23:05:56.558Z,24.47
2018-08-12T23:08:25.319Z,24.44
2018-08-12T23:10:53.786Z,24.45
2018-08-12T23:13:22.212Z,24.46
2018-08-12T23:16:13.092Z,24.44
2018-08-12T23:18:41.738Z,24.40
2018-08-12T23:21:15.318Z,24.40
2018-08-12T23:23:44.966Z,24.35
2018-08-12T23:26:14.677Z,24.30
2018-08-12T23:28:43.316Z,24.30
2018-08-12T23:31:11.790Z,24.23
2018-08-12T23:33:40.349Z,24.20
2018-08-12T23:36:09.606Z,24.13
2018-08-12T23:38:38.645Z,24.09
2018-08-12T23:41:08.346Z,24.03
2018-08-12T23:43:37.377Z,23.98
2018-08-12T23:46:07.704Z,23.96
2018-08-12T23:48:37.223Z,23.93
2018-08-12T23:51:06.162Z,23.91
2018-08-12T23:53:35.130Z,23.87
2018-08-12T23:56:03.851Z,23.86
